Aventoft Airfield

DE-0278 · 石勒苏益格-荷尔斯泰因, 德国

使用的METAR站距离机场31 km。
罗盘
风向 的 风向 210° Aventoft Airfield 9/27
风: 11 kt, 4 beaufort

6 kt

9 kt
改变
0 ft 1.000 2.000 3.000 4.000 5.000
Cloud Cloud
FEW 2.200
Cloud Cloud Cloud Cloud
SCT 4.000
METAR EDXW 231850Z AUTO 21011KT 9999 // FEW022/// SCT040/// 06/04 Q0991

METAR Aventoft Airfield - DE-0278

Aventoft Airfield是,德国中的小机场。 该机场位于纬度54,89610和经度8,82080。 该机场有一条跑道: 9/27. 这个机场没有ICAO代码,我们使用DE-0278作为参考。 机场在Bremen FIR中。

该航空气象观测是针对Westerland Sylt Airport在2024年2月23日 19:50, 当地时间进行的。

机场观察

风向为210°,速度为11 kt。

可见度为10 km 或者更多。

有几云在2.200 ft的高度 和 疏云,零星散落的云朵在4.000 ft的高度。 没有观察到天花板。

温度为6 °C,阵风为1 °C。 露点为4 °C,相对湿度为87%。 海平面上的气压为991 hPa (QNH)。

白天

今天,太阳从07:29升起,在17:46降落。 这适用于Aventoft Airfield,世界夏令时可能有所不同。 当地时间与世界标准时间之间的时差为+1 小时。 当前,没有夏令时有效。

公司介绍

我们没有关于这个机场的公司信息。

体会

到Vliegles.nl去找飞行课程,跳伞和其他飞行体验。 浏览页面,了解Aventoft Airfield附近所有可用的活动。 你也可以使用搜索功能来寻找你所在地附近的特定飞行课程、跳伞或其他飞行体验。

跑道

Id 标题 侧风 逆风 侧风 %
9/27 089°-269° 9 kt 6 kt 86 %

逆风成分最大的方向会被突出显示,并用于横风计算。 这并不一定意味着这个方向在使用。

乌云

2.200 ft FEW 几云
4.000 ft SCT 疏云,零星散落的云朵

温度 & 天气

温度 6 °C
露点 4 °C
相对湿度 87%
风寒 1 °C
Kp-index 0 (0-9)

白天

日出
07:31 (11:03)
中午
12:40
日落
17:48

小工具

你想在你的网站上有一个关于Aventoft Airfield的当前航空天气(METAR)的小部件吗?

显示HTML代码
?>